AST,Max TemperatureF,Mean TemperatureF,Min TemperatureF,Max Dew PointF,MeanDew PointF,Min DewpointF,Max Humidity, Mean Humidity, Min Humidity, Max Sea Level PressureIn, Mean Sea Level PressureIn, Min Sea Level PressureIn, Max VisibilityMiles, Mean VisibilityMiles, Min VisibilityMiles, Max Wind SpeedMPH, Mean Wind SpeedMPH, Max Gust SpeedMPH,PrecipitationIn, CloudCover, Events, WindDirDegrees
2012-9-1,86,82,77,75,74,72,89,77,70,29.98,29.93,29.89,6,6,6,8,2,,0.00,5,,125
2012-9-2,87,82,78,77,75,72,89,74,66,30.04,29.96,29.92,6,6,6,18,8,,0.00,3,,129
2012-9-3,87,84,80,79,76,72,84,78,70,30.04,30.00,29.95,6,6,6,15,11,,0.00,4,Rain,93
2012-9-4,87,82,78,79,75,70,89,79,62,30.01,29.97,29.92,6,6,6,12,5,,0.00,5,Rain,99
2012-9-5,87,82,78,79,75,73,84,78,70,30.01,29.97,29.92,6,6,4,17,11,,0.00,3,Rain,95
2012-9-6,87,82,78,77,74,70,89,75,58,30.04,29.98,29.95,6,6,6,12,5,,0.00,2,,101
2012-9-7,87,82,77,75,74,72,84,74,62,30.01,29.96,29.89,6,6,6,14,9,,0.00,3,,110
2012-9-8,87,82,77,77,76,73,94,80,70,30.01,29.97,29.92,6,6,6,14,7,,0.00,2,,78
2012-9-9,87,82,78,79,76,70,89,80,66,30.01,29.97,29.92,6,6,6,14,5,,0.00,3,Rain,64
2012-9-10,87,81,75,79,75,73,100,85,70,29.98,29.93,29.86,6,6,4,14,7,,0.00,6,Rain-Thunderstorm,94
2012-9-11,86,82,78,77,75,72,89,78,70,29.98,29.92,29.86,6,6,6,14,3,,0.00,6,,98
2012-9-12,87,82,77,77,75,72,89,79,66,29.92,29.89,29.83,6,6,6,14,4,,0.00,4,,115
2012-9-13,87,82,78,77,76,75,94,80,70,29.95,29.91,29.86,6,6,6,14,6,,0.00,6,,107
2012-9-14,87,82,78,77,74,72,89,73,58,29.98,29.95,29.92,6,6,6,15,9,,0.00,3,,102
2012-9-15,87,82,77,75,74,72,94,75,58,30.01,29.95,29.89,6,6,6,13,5,,0.00,3,,95
2012-9-16,86,82,78,77,75,73,84,76,70,29.98,29.93,29.89,6,6,6,8,2,,0.00,3,,37
2012-9-17,87,82,78,77,74,72,83,75,62,29.98,29.92,29.86,6,6,6,15,3,,0.00,2,,124
2012-9-18,89,84,78,79,75,73,89,75,66,30.01,29.94,29.89,6,6,6,15,7,,0.00,5,,112
2012-9-19,87,84,82,75,73,70,79,69,58,29.98,29.94,29.89,6,6,6,14,9,,0.00,2,,108
2012-9-20,87,82,78,77,75,72,89,75,66,29.95,29.90,29.83,6,6,6,18,8,,0.00,3,,91
2012-9-21,89,84,80,77,75,72,84,75,62,29.95,29.88,29.83,6,6,6,20,13,,0.00,3,,101
2012-9-22,91,86,80,77,74,72,79,72,59,29.98,29.93,29.89,6,6,6,21,11,,0.00,4,Rain,77
2012-9-23,87,81,75,75,73,72,94,78,62,29.95,29.91,29.86,6,5,1,25,4,34,0.00,7,Rain-Thunderstorm,108
2012-9-24,87,81,75,77,75,72,94,79,62,29.95,29.90,29.86,6,6,6,17,5,,0.00,5,,100
2012-9-25,86,82,78,77,76,73,89,80,74,29.98,29.92,29.89,6,6,6,15,4,,0.00,4,,102
2012-9-26,87,82,77,75,74,72,94,79,62,29.98,29.93,29.89,6,6,6,9,1,,0.00,4,,112
2012-9-27,87,82,77,77,75,73,94,78,66,29.98,29.92,29.86,6,6,6,14,5,,0.00,4,,120
2012-9-28,87,82,78,77,75,73,83,75,66,30.01,29.95,29.89,6,6,6,14,8,,0.00,5,,110
2012-9-29,89,84,78,79,76,75,89,78,70,30.01,29.97,29.92,6,6,2,21,11,39,0.00,3,Rain-Thunderstorm,98
2012-9-30,86,82,77,77,74,70,94,81,70,30.01,29.94,29.89,6,5,1,17,6,23,0.00,4,Rain-Thunderstorm,84